Time;durP1;ratioP1;P1;durP2;ratioP2;P2;SDS_P1;SDS_P2;PMS_P1;PMS_P2;Temp;Humidity;BMP_temperature;BMP_pressure;BME280_temperature;BME280_humidity;BME280_pressure;Samples;Min_cycle;Max_cycle;Signal;HPM_P1;HPM_P2
2022/01/28 00:04:51;;;;;;;5.72;0.60;;;6.00;99.90;;;;;;4974017;28;20097;-86
2022/01/28 00:07:17;;;;;;;12.27;0.93;;;5.90;99.90;;;;;;4973993;28;20105;-86
2022/01/28 00:09:43;;;;;;;8.75;0.80;;;6.60;99.90;;;;;;4973575;28;20038;-85
2022/01/28 00:12:10;;;;;;;9.10;1.00;;;5.70;99.90;;;;;;4973596;28;20522;-85
2022/01/28 00:15:04;;;;;;;7.65;0.95;;;5.70;99.90;;;;;;4958108;28;20081;-85
2022/01/28 00:17:53;;;;;;;13.32;1.50;;;5.70;99.90;;;;;;4972701;28;20051;-87
2022/01/28 00:39:20;;;;;;;17.35;2.10;;;5.40;99.90;;;;;;5034036;28;20054;-87
2022/01/28 00:41:46;;;;;;;18.58;1.88;;;6.20;99.90;;;;;;5015824;28;20050;-87
2022/01/28 00:44:12;;;;;;;22.42;2.47;;;5.50;99.90;;;;;;5024507;28;20128;-86
2022/01/28 00:46:37;;;;;;;20.63;2.13;;;5.60;99.90;;;;;;5020084;28;20047;-84
2022/01/28 00:49:03;;;;;;;27.35;2.42;;;5.80;99.90;;;;;;5037788;28;20048;-86
2022/01/28 00:51:28;;;;;;;17.17;2.38;;;5.90;99.90;;;;;;5033374;28;20057;-87
2022/01/28 00:53:54;;;;;;;15.60;1.83;;;6.30;99.90;;;;;;5035070;28;20045;-86
2022/01/28 00:56:20;;;;;;;21.02;1.90;;;5.70;99.90;;;;;;5038059;28;20394;-86
2022/01/28 00:58:45;;;;;;;8.68;2.63;;;6.10;99.90;;;;;;5020931;28;20033;-84
2022/01/28 01:01:11;;;;;;;11.65;1.48;;;5.70;99.90;;;;;;5018461;28;20081;-84
2022/01/28 01:03:37;;;;;;;12.95;2.47;;;5.50;99.90;;;;;;5015929;28;20048;-87
2022/01/28 01:06:02;;;;;;;20.48;1.80;;;5.50;99.90;;;;;;5044679;28;20044;-85
2022/01/28 01:08:28;;;;;;;14.43;1.83;;;6.20;99.90;;;;;;5051149;28;20850;-86
2022/01/28 01:10:54;;;;;;;24.33;4.97;;;5.60;99.90;;;;;;5046828;28;20049;-84
2022/01/28 01:13:20;;;;;;;16.20;2.28;;;5.70;99.90;;;;;;5035692;28;20121;-87
2022/01/28 01:15:50;;;;;;;17.35;1.83;;;5.70;99.90;;;;;;5021934;28;20132;-86
2022/01/28 01:18:24;;;;;;;16.90;1.85;;;5.30;99.90;;;;;;5041702;28;20111;-84
2022/01/28 01:21:02;;;;;;;27.25;2.60;;;5.30;99.90;;;;;;5033341;28;20044;-85
2022/01/28 01:23:32;;;;;;;15.05;1.92;;;5.30;99.90;;;;;;5016938;28;20061;-86
2022/01/28 01:28:36;;;;;;;9.77;1.52;;;5.30;99.90;;;;;;5036036;28;20049;-87
2022/01/28 01:31:05;;;;;;;19.92;2.40;;;5.80;99.90;;;;;;5044687;28;20052;-86
2022/01/28 01:33:37;;;;;;;18.67;2.53;;;5.30;99.90;;;;;;5043385;28;20045;-85
2022/01/28 01:36:03;;;;;;;20.52;2.00;;;5.30;99.90;;;;;;5038075;28;20045;-85
2022/01/28 01:38:33;;;;;;;14.98;1.92;;;5.40;99.90;;;;;;5036475;28;20113;-86
2022/01/28 01:41:02;;;;;;;25.40;2.53;;;5.40;99.90;;;;;;5029150;28;20481;-86
2022/01/28 01:43:42;;;;;;;16.77;2.00;;;5.30;99.90;;;;;;5037984;28;20045;-85
2022/01/28 01:54:46;;;;;;;15.40;1.85;;;5.50;99.90;;;;;;4927414;29;20086;-85
2022/01/28 01:57:13;;;;;;;19.42;3.60;;;5.60;99.90;;;;;;4927715;29;20036;-88
2022/01/28 01:59:40;;;;;;;12.20;1.92;;;5.30;99.90;;;;;;4927747;29;20052;-87
2022/01/28 02:02:07;;;;;;;13.68;2.03;;;5.60;99.90;;;;;;4930951;29;20051;-87
2022/01/28 02:04:33;;;;;;;22.02;2.85;;;5.70;99.90;;;;;;4925385;29;20058;-87
2022/01/28 02:07:00;;;;;;;20.45;2.42;;;5.90;99.90;;;;;;4928748;29;20571;-86
2022/01/28 02:09:26;;;;;;;25.05;2.80;;;5.90;99.90;;;;;;4913631;29;20039;-87
2022/01/28 02:11:52;;;;;;;16.55;2.47;;;6.20;99.90;;;;;;4929411;29;20052;-87
2022/01/28 02:14:18;;;;;;;24.98;2.80;;;6.70;99.90;;;;;;4929071;29;20499;-87
2022/01/28 02:16:43;;;;;;;15.07;2.28;;;6.20;99.90;;;;;;4930080;29;20062;-87
2022/01/28 02:19:09;;;;;;;19.80;1.73;;;6.10;99.90;;;;;;4912712;29;20055;-85
2022/01/28 02:21:51;;;;;;;13.85;1.70;;;6.70;99.90;;;;;;4930362;29;20481;-87
2022/01/28 02:24:21;;;;;;;18.52;2.80;;;6.70;99.90;;;;;;4931727;29;20138;-86
2022/01/28 02:26:47;;;;;;;14.57;1.70;;;6.10;99.90;;;;;;4936402;29;20055;-87
2022/01/28 02:29:15;;;;;;;22.45;2.55;;;6.70;99.90;;;;;;4951214;29;20046;-87
2022/01/28 02:31:42;;;;;;;18.35;2.60;;;6.50;99.90;;;;;;5007456;28;20061;-87
2022/01/28 02:34:11;;;;;;;16.98;1.88;;;6.00;99.90;;;;;;5038956;28;20048;-86
2022/01/28 02:36:38;;;;;;;18.35;3.28;;;6.20;99.90;;;;;;5040599;28;20037;-88
2022/01/28 02:39:05;;;;;;;22.35;3.00;;;5.90;99.90;;;;;;5036848;28;20036;-87
2022/01/28 02:41:36;;;;;;;12.23;1.30;;;5.80;99.90;;;;;;5043461;28;20094;-85
2022/01/28 02:46:34;;;;;;;19.90;3.38;;;6.40;99.90;;;;;;5040521;28;20045;-88
2022/01/28 02:49:06;;;;;;;17.25;2.55;;;6.50;99.90;;;;;;5040445;28;20048;-86
2022/01/28 02:51:33;;;;;;;32.03;3.40;;;6.10;99.90;;;;;;5031739;28;20068;-83
2022/01/28 02:54:00;;;;;;;21.45;2.53;;;6.00;99.90;;;;;;5041989;28;20047;-89
2022/01/28 02:56:37;;;;;;;12.15;2.10;;;6.10;99.90;;;;;;5036274;28;20046;-87
2022/01/28 02:59:04;;;;;;;20.52;2.70;;;6.80;99.90;;;;;;5037832;28;20054;-87
2022/01/28 03:01:29;;;;;;;11.55;1.98;;;5.80;99.90;;;;;;5047391;28;20091;-87
2022/01/28 03:03:55;;;;;;;18.05;1.98;;;6.00;99.90;;;;;;5040196;28;20441;-86
2022/01/28 03:06:22;;;;;;;16.95;1.92;;;6.50;99.90;;;;;;5031504;28;20393;-89
2022/01/28 03:08:59;;;;;;;24.13;2.40;;;6.50;99.90;;;;;;5040440;28;20041;-88
2022/01/28 03:11:42;;;;;;;13.90;2.13;;;6.50;99.90;;;;;;5047130;28;20036;-85
2022/01/28 03:14:32;;;;;;;17.40;2.15;;;6.20;99.90;;;;;;5004821;28;20033;-82
2022/01/28 03:17:06;;;;;;;15.88;1.95;;;6.20;99.90;;;;;;5038685;28;20053;-87
2022/01/28 03:19:46;;;;;;;24.58;3.55;;;6.60;99.90;;;;;;5045281;28;20099;-86
2022/01/28 03:22:12;;;;;;;18.25;1.95;;;6.80;99.90;;;;;;5041258;28;20041;-81
2022/01/28 03:24:39;;;;;;;21.63;2.83;;;6.30;99.90;;;;;;5035396;28;20087;-82
2022/01/28 03:27:11;;;;;;;14.90;1.95;;;6.20;99.90;;;;;;5017493;28;20390;-86
2022/01/28 03:29:37;;;;;;;13.00;1.42;;;6.20;99.90;;;;;;5045907;28;20119;-87
2022/01/28 03:32:03;;;;;;;14.63;2.03;;;6.10;99.90;;;;;;5041404;28;20485;-84
2022/01/28 03:34:28;;;;;;;19.42;2.22;;;6.10;99.90;;;;;;5036557;28;20037;-85
2022/01/28 03:36:56;;;;;;;6.35;1.27;;;6.20;99.90;;;;;;5043094;28;20044;-87
2022/01/28 03:39:22;;;;;;;26.52;2.67;;;6.10;99.90;;;;;;5035394;28;20449;-87
2022/01/28 03:41:47;;;;;;;14.48;2.25;;;6.20;99.90;;;;;;5045157;28;20051;-84
2022/01/28 03:44:13;;;;;;;20.48;1.63;;;6.20;99.90;;;;;;5042409;28;20116;-87
2022/01/28 03:46:39;;;;;;;14.20;2.05;;;6.60;99.90;;;;;;5035294;28;20030;-82
2022/01/28 03:49:04;;;;;;;20.85;2.30;;;6.20;99.90;;;;;;5030495;28;20076;-86
2022/01/28 03:51:30;;;;;;;12.38;1.30;;;6.20;99.90;;;;;;5040348;28;20049;-88
2022/01/28 03:53:56;;;;;;;17.27;1.98;;;6.80;99.90;;;;;;5036414;28;20049;-86
2022/01/28 03:56:22;;;;;;;14.63;2.15;;;6.20;99.90;;;;;;5039790;28;20366;-86
2022/01/28 03:58:48;;;;;;;9.02;1.30;;;6.50;99.90;;;;;;5046325;28;20037;-86
2022/01/28 04:01:18;;;;;;;7.13;1.50;;;6.20;99.90;;;;;;5045820;28;20060;-87
2022/01/28 04:11:50;;;;;;;11.98;1.67;;;6.10;99.90;;;;;;5042885;28;20133;-87
2022/01/28 04:19:38;;;;;;;10.40;1.60;;;6.50;99.90;;;;;;5028989;28;20371;-83
2022/01/28 04:22:04;;;;;;;11.05;2.05;;;6.10;99.90;;;;;;5037929;28;20047;-87
2022/01/28 04:24:30;;;;;;;12.75;2.85;;;6.10;99.90;;;;;;5036280;28;20045;-86
2022/01/28 04:26:55;;;;;;;17.52;1.73;;;6.20;99.90;;;;;;5024583;28;20056;-86
2022/01/28 04:29:21;;;;;;;9.82;1.67;;;6.30;99.90;;;;;;5050342;28;20045;-87
2022/01/28 04:31:48;;;;;;;12.40;1.48;;;6.90;99.90;;;;;;5042359;28;20053;-83
2022/01/28 04:34:15;;;;;;;12.65;2.30;;;6.70;99.90;;;;;;5034460;28;20037;-86
2022/01/28 04:36:55;;;;;;;18.05;2.33;;;6.40;99.90;;;;;;5037651;28;20041;-86
2022/01/28 04:39:29;;;;;;;14.15;1.90;;;6.30;99.90;;;;;;5034091;28;20049;-87
2022/01/28 04:42:09;;;;;;;18.33;1.60;;;6.10;99.90;;;;;;5037210;28;20102;-86
2022/01/28 04:44:52;;;;;;;18.45;2.70;;;6.90;99.90;;;;;;5038342;28;20160;-86
2022/01/28 04:47:37;;;;;;;9.60;2.45;;;6.70;99.90;;;;;;5033994;28;20037;-86
2022/01/28 05:00:21;;;;;;;12.35;1.70;;;6.30;99.90;;;;;;5042826;28;20464;-85
2022/01/28 05:08:10;;;;;;;9.93;2.17;;;6.20;99.90;;;;;;5034772;28;20050;-84
2022/01/28 05:26:34;;;;;;;11.35;1.67;;;6.00;99.90;;;;;;5040918;28;20579;-85
2022/01/28 05:29:00;;;;;;;17.90;2.30;;;6.10;99.90;;;;;;5039017;28;20132;-86
2022/01/28 05:31:26;;;;;;;12.43;1.38;;;6.60;99.90;;;;;;5017392;28;20145;-85
2022/01/28 05:33:52;;;;;;;24.27;2.25;;;6.10;99.90;;;;;;5034058;28;20073;-85
2022/01/28 05:36:18;;;;;;;11.27;1.73;;;6.90;99.90;;;;;;5040477;28;20048;-86
2022/01/28 05:38:44;;;;;;;16.33;2.50;;;5.90;99.90;;;;;;5041862;28;20037;-82
2022/01/28 05:41:09;;;;;;;9.98;1.80;;;5.80;99.90;;;;;;5038385;28;20126;-84
2022/01/28 05:43:35;;;;;;;10.20;2.72;;;6.00;99.90;;;;;;5018447;28;20041;-85
2022/01/28 05:46:01;;;;;;;17.63;1.58;;;5.80;99.90;;;;;;5041225;28;20038;-87
2022/01/28 05:48:27;;;;;;;13.90;1.50;;;6.50;99.90;;;;;;5039698;28;20043;-87
2022/01/28 05:50:53;;;;;;;13.77;1.98;;;5.90;99.90;;;;;;5035140;28;20493;-86
2022/01/28 05:53:18;;;;;;;20.05;2.42;;;5.60;99.90;;;;;;5048727;28;20049;-89
2022/01/28 05:55:44;;;;;;;9.70;1.35;;;6.10;99.90;;;;;;5014704;28;20390;-85
2022/01/28 05:58:10;;;;;;;16.25;1.95;;;6.10;99.90;;;;;;5033013;28;20039;-87
2022/01/28 06:00:35;;;;;;;22.08;2.42;;;6.20;99.90;;;;;;5021412;28;20041;-88
2022/01/28 06:03:01;;;;;;;14.13;1.75;;;6.00;99.90;;;;;;5042989;28;20045;-86
2022/01/28 06:05:30;;;;;;;14.57;1.67;;;6.00;99.90;;;;;;5037611;28;20037;-88
2022/01/28 06:08:00;;;;;;;26.85;2.50;;;7.10;99.90;;;;;;5034980;28;20052;-88
2022/01/28 06:10:26;;;;;;;22.45;2.90;;;6.00;99.90;;;;;;5040519;28;20474;-87
2022/01/28 06:12:52;;;;;;;18.60;2.10;;;6.40;99.90;;;;;;5032792;28;20041;-88
2022/01/28 06:15:18;;;;;;;16.15;2.08;;;7.20;99.90;;;;;;5035702;28;20033;-87
2022/01/28 06:17:44;;;;;;;10.60;1.60;;;6.40;99.90;;;;;;5037415;28;20497;-88
2022/01/28 06:20:12;;;;;;;12.18;1.60;;;6.50;99.90;;;;;;5040550;28;20049;-88
2022/01/28 06:22:42;;;;;;;12.30;2.30;;;6.60;99.90;;;;;;5032389;28;20038;-86
2022/01/28 06:25:09;;;;;;;16.92;2.17;;;6.00;99.90;;;;;;5034466;28;20041;-83
2022/01/28 06:27:36;;;;;;;12.77;2.05;;;6.00;99.90;;;;;;5043876;28;20033;-87
2022/01/28 06:30:04;;;;;;;14.00;1.73;;;6.00;99.90;;;;;;5035862;28;20123;-86
2022/01/28 06:32:30;;;;;;;15.55;1.35;;;5.70;99.90;;;;;;5040226;28;20076;-88
2022/01/28 06:34:56;;;;;;;11.70;1.88;;;5.50;99.90;;;;;;5033190;28;20056;-87
2022/01/28 06:37:22;;;;;;;12.57;1.80;;;5.90;99.90;;;;;;5040199;28;20484;-88
2022/01/28 06:39:47;;;;;;;22.38;1.95;;;5.50;99.90;;;;;;5032398;28;20045;-86
2022/01/28 06:42:13;;;;;;;22.55;1.85;;;5.50;99.90;;;;;;5022185;28;20041;-86
2022/01/28 06:44:39;;;;;;;19.60;1.70;;;5.40;99.90;;;;;;5018784;28;20084;-82
2022/01/28 06:47:05;;;;;;;17.13;1.83;;;6.00;99.90;;;;;;5043755;28;20087;-85
2022/01/28 06:49:31;;;;;;;15.85;1.67;;;5.60;99.90;;;;;;5014566;28;20140;-86
2022/01/28 06:51:57;;;;;;;11.13;1.17;;;5.60;99.90;;;;;;5021744;28;20120;-88
2022/01/28 06:54:23;;;;;;;14.68;2.22;;;6.30;99.90;;;;;;5022627;28;20084;-86
2022/01/28 06:56:48;;;;;;;11.55;1.38;;;5.70;99.90;;;;;;5031908;28;20045;-86
2022/01/28 06:59:17;;;;;;;16.50;1.73;;;6.30;99.90;;;;;;5039879;28;20478;-85
2022/01/28 07:01:43;;;;;;;7.20;1.25;;;6.40;99.90;;;;;;5038745;28;20196;-85
2022/01/28 07:04:08;;;;;;;10.95;1.77;;;5.70;99.90;;;;;;5032056;28;20116;-85
2022/01/28 07:06:34;;;;;;;11.75;1.92;;;6.20;99.90;;;;;;5037251;28;20583;-84
2022/01/28 07:09:00;;;;;;;13.93;1.70;;;5.50;99.90;;;;;;5037303;28;20041;-87
2022/01/28 07:11:28;;;;;;;19.48;1.98;;;5.50;99.90;;;;;;5042770;28;20044;-87
2022/01/28 07:13:54;;;;;;;9.90;1.70;;;6.30;99.90;;;;;;5013471;28;20060;-86
2022/01/28 07:16:20;;;;;;;13.40;1.75;;;6.30;99.90;;;;;;5031885;28;20073;-88
2022/01/28 07:18:46;;;;;;;10.73;1.80;;;6.10;99.90;;;;;;5014383;28;20065;-93
2022/01/28 07:21:11;;;;;;;18.35;2.67;;;5.40;99.90;;;;;;5015215;28;20041;-87
2022/01/28 07:23:39;;;;;;;15.80;1.92;;;6.10;99.90;;;;;;5040458;28;20409;-88
2022/01/28 07:26:05;;;;;;;21.40;1.73;;;5.80;99.90;;;;;;5015407;28;20046;-86
2022/01/28 07:28:35;;;;;;;18.33;1.67;;;5.40;99.90;;;;;;5039728;28;20037;-86
2022/01/28 07:31:01;;;;;;;9.15;1.88;;;5.40;99.90;;;;;;5024493;28;20390;-84
2022/01/28 07:33:27;;;;;;;8.48;1.70;;;6.30;99.90;;;;;;5039722;28;20033;-86
2022/01/28 07:35:53;;;;;;;16.52;2.28;;;6.30;99.90;;;;;;5040760;28;20409;-86
2022/01/28 07:38:18;;;;;;;17.15;1.85;;;5.20;99.90;;;;;;5031823;28;20367;-86
2022/01/28 07:40:44;;;;;;;24.02;2.28;;;5.60;99.90;;;;;;5023301;28;20116;-86
2022/01/28 07:43:11;;;;;;;20.52;2.75;;;5.60;99.90;;;;;;5016990;28;20041;-86
2022/01/28 07:45:37;;;;;;;16.80;2.55;;;6.70;99.90;;;;;;5024261;28;20441;-85
2022/01/28 07:48:03;;;;;;;15.18;2.00;;;5.70;99.90;;;;;;5028369;28;20128;-84
2022/01/28 07:50:29;;;;;;;22.70;2.22;;;5.60;99.90;;;;;;5046010;28;20041;-85
2022/01/28 07:52:55;;;;;;;18.30;1.88;;;4.70;99.90;;;;;;5045383;28;20044;-84
2022/01/28 07:55:21;;;;;;;14.43;1.67;;;6.00;99.90;;;;;;5025014;28;20037;-85
2022/01/28 07:57:47;;;;;;;25.27;2.60;;;5.50;99.90;;;;;;5024609;28;20049;-85
2022/01/28 08:00:13;;;;;;;17.60;2.45;;;6.10;99.90;;;;;;5020982;28;20041;-85
2022/01/28 08:02:42;;;;;;;15.38;1.70;;;5.40;99.90;;;;;;5031672;28;20068;-84
2022/01/28 08:05:09;;;;;;;9.73;1.48;;;4.70;99.90;;;;;;5032769;28;20096;-84
2022/01/28 08:07:35;;;;;;;12.82;1.58;;;5.70;99.90;;;;;;5040550;28;20045;-84
2022/01/28 08:10:01;;;;;;;18.80;1.52;;;6.00;99.90;;;;;;5035982;28;20041;-85
2022/01/28 08:12:26;;;;;;;12.55;1.67;;;4.90;99.90;;;;;;5023108;28;20088;-84
2022/01/28 08:14:52;;;;;;;23.05;3.78;;;6.70;99.90;;;;;;5034768;28;20072;-85
2022/01/28 08:17:18;;;;;;;15.48;2.88;;;5.90;99.90;;;;;;5042467;28;20100;-84
2022/01/28 08:19:44;;;;;;;14.85;2.47;;;6.30;99.90;;;;;;5042463;28;20116;-84
2022/01/28 08:22:09;;;;;;;15.48;1.90;;;6.50;99.90;;;;;;5033749;28;20034;-84
2022/01/28 08:24:35;;;;;;;16.05;2.08;;;6.50;99.90;;;;;;5034743;28;20036;-83
2022/01/28 08:27:01;;;;;;;17.90;2.13;;;6.20;99.90;;;;;;5016081;28;20049;-83
2022/01/28 08:29:26;;;;;;;21.55;2.67;;;6.60;99.90;;;;;;5041997;28;20033;-84
2022/01/28 08:31:52;;;;;;;16.73;2.03;;;6.80;99.90;;;;;;5016674;28;20085;-84
2022/01/28 08:34:18;;;;;;;13.35;1.90;;;6.70;99.90;;;;;;5045080;28;20073;-84
2022/01/28 08:36:44;;;;;;;16.30;2.17;;;6.00;99.90;;;;;;5039073;28;20523;-83
2022/01/28 08:39:10;;;;;;;15.27;2.40;;;5.80;99.90;;;;;;5041421;28;20788;-84
2022/01/28 08:41:39;;;;;;;12.40;1.50;;;5.40;99.90;;;;;;5026229;28;20116;-84
2022/01/28 08:44:05;;;;;;;14.55;1.60;;;6.20;99.90;;;;;;5041554;28;20049;-84
2022/01/28 08:46:31;;;;;;;24.58;2.38;;;6.10;99.90;;;;;;5036560;28;20049;-84
2022/01/28 08:48:57;;;;;;;17.30;1.92;;;5.80;99.90;;;;;;5045438;28;20045;-84
2022/01/28 08:51:24;;;;;;;15.43;2.42;;;5.80;99.90;;;;;;5015711;28;20065;-84
2022/01/28 08:53:49;;;;;;;18.60;2.03;;;5.80;99.90;;;;;;5038389;28;20053;-84
2022/01/28 08:56:15;;;;;;;16.48;3.83;;;6.10;99.90;;;;;;5044887;28;20099;-85
2022/01/28 08:58:41;;;;;;;13.45;1.77;;;6.30;99.90;;;;;;5042703;28;20036;-84
2022/01/28 09:01:06;;;;;;;15.32;1.77;;;5.80;99.90;;;;;;5045274;28;20037;-84
2022/01/28 09:03:33;;;;;;;11.43;1.60;;;6.40;99.90;;;;;;5017133;28;20514;-85
2022/01/28 09:05:59;;;;;;;17.75;1.60;;;5.80;99.90;;;;;;5023600;28;20498;-85
2022/01/28 09:08:25;;;;;;;10.88;1.60;;;6.40;99.90;;;;;;5023510;28;20049;-85
2022/01/28 09:11:00;;;;;;;21.55;1.90;;;6.90;99.90;;;;;;5015059;28;20049;-85
2022/01/28 09:13:30;;;;;;;22.75;2.50;;;6.50;99.90;;;;;;5018624;28;20508;-83
2022/01/28 09:15:57;;;;;;;11.02;1.55;;;7.30;99.90;;;;;;5026170;28;20037;-85
2022/01/28 09:18:25;;;;;;;11.90;1.63;;;6.90;99.90;;;;;;5023454;28;20053;-85
2022/01/28 09:20:51;;;;;;;11.43;1.90;;;7.00;99.90;;;;;;5044780;28;20044;-86
2022/01/28 09:23:17;;;;;;;13.25;1.77;;;6.10;99.90;;;;;;5020193;28;20083;-86
2022/01/28 09:25:46;;;;;;;9.65;1.45;;;6.20;99.90;;;;;;5023493;28;20045;-85
2022/01/28 09:28:28;;;;;;;10.27;1.50;;;6.10;99.90;;;;;;5041214;28;20036;-88
2022/01/28 09:30:57;;;;;;;16.63;2.67;;;6.80;99.90;;;;;;5026463;28;20045;-86
2022/01/28 09:33:23;;;;;;;18.15;1.92;;;6.20;99.90;;;;;;5043821;28;20096;-85
2022/01/28 09:35:49;;;;;;;10.60;1.92;;;5.80;99.90;;;;;;5038198;28;20117;-84
2022/01/28 09:38:16;;;;;;;10.32;1.30;;;6.70;99.90;;;;;;5041636;28;20045;-92
2022/01/28 09:40:45;;;;;;;19.67;1.95;;;6.50;99.90;;;;;;5041950;28;20041;-93
2022/01/28 09:43:11;;;;;;;8.52;0.95;;;7.30;99.90;;;;;;5041221;28;20052;-85
2022/01/28 09:45:39;;;;;;;12.50;1.23;;;6.50;99.90;;;;;;5040769;28;20038;-85
2022/01/28 09:48:06;;;;;;;14.35;2.28;;;7.30;99.90;;;;;;4999624;28;20065;-85
2022/01/28 09:50:33;;;;;;;13.02;1.73;;;6.40;99.90;;;;;;5032693;28;20059;-86
2022/01/28 09:53:01;;;;;;;14.18;2.20;;;7.70;99.90;;;;;;5035511;28;20037;-86
2022/01/28 09:55:29;;;;;;;21.70;2.13;;;7.20;99.90;;;;;;5038851;28;20052;-87
2022/01/28 09:58:19;;;;;;;10.88;1.20;;;7.00;99.90;;;;;;4998686;28;20052;-88
2022/01/28 10:00:45;;;;;;;9.40;1.88;;;6.90;99.90;;;;;;4998539;28;20057;-85
2022/01/28 10:03:13;;;;;;;22.70;2.25;;;7.30;99.90;;;;;;5014557;28;20517;-86
2022/01/28 10:05:41;;;;;;;11.75;1.77;;;8.10;99.90;;;;;;5015430;28;20067;-84
2022/01/28 10:08:14;;;;;;;17.52;1.83;;;7.20;99.90;;;;;;5033232;28;20099;-85
2022/01/28 10:10:52;;;;;;;15.98;1.90;;;7.50;99.90;;;;;;5015287;28;20053;-85
2022/01/28 10:13:34;;;;;;;17.40;1.58;;;7.10;99.90;;;;;;5033086;28;20045;-86
2022/01/28 10:16:04;;;;;;;16.55;1.92;;;7.00;99.90;;;;;;5033288;28;20434;-86
2022/01/28 10:18:56;;;;;;;14.30;2.08;;;7.00;99.90;;;;;;5015290;28;20057;-85
2022/01/28 10:21:37;;;;;;;14.32;1.58;;;6.90;99.90;;;;;;4975099;28;20054;-85
2022/01/28 10:24:14;;;;;;;15.02;1.80;;;7.00;99.90;;;;;;4990148;28;20061;-86
2022/01/28 10:26:47;;;;;;;14.77;1.90;;;7.10;99.90;;;;;;4974487;28;20156;-86
2022/01/28 10:29:17;;;;;;;18.55;2.50;;;7.20;99.90;;;;;;4990886;28;20052;-85
2022/01/28 10:32:04;;;;;;;14.38;1.83;;;7.30;99.90;;;;;;4991045;28;20054;-85
2022/01/28 10:34:39;;;;;;;10.20;2.08;;;7.30;99.90;;;;;;4974979;28;20054;-85
2022/01/28 10:37:23;;;;;;;12.20;1.52;;;7.40;99.90;;;;;;4990628;28;20065;-85
2022/01/28 10:40:07;;;;;;;12.07;2.17;;;7.30;99.90;;;;;;4983293;28;20062;-85
2022/01/28 10:42:44;;;;;;;24.10;2.33;;;7.30;99.90;;;;;;4990860;28;20549;-85
2022/01/28 10:45:12;;;;;;;12.63;1.85;;;7.60;99.90;;;;;;4974832;28;20046;-84
2022/01/28 10:47:45;;;;;;;22.52;2.17;;;7.90;99.90;;;;;;4991227;28;20073;-85
2022/01/28 10:50:31;;;;;;;14.15;2.40;;;7.40;99.90;;;;;;4975000;28;20046;-85
2022/01/28 10:53:00;;;;;;;;;;;7.70;99.90;;;;;;4991232;28;20459;-85
2022/01/28 10:55:27;;;;;;;16.42;2.47;;;7.60;99.90;;;;;;4990870;28;19961;-88
2022/01/28 10:57:58;;;;;;;13.80;1.40;;;7.80;99.90;;;;;;4987871;28;20112;-86
2022/01/28 11:00:28;;;;;;;9.82;1.00;;;7.10;99.90;;;;;;5014735;28;20555;-85
2022/01/28 11:02:55;;;;;;;18.85;1.75;;;7.30;99.90;;;;;;5032388;28;20454;-85
2022/01/28 11:05:33;;;;;;;16.20;1.58;;;8.00;99.90;;;;;;5032355;28;20041;-90
2022/01/28 11:08:00;;;;;;;13.70;1.75;;;7.60;99.90;;;;;;5015372;28;20038;-85
2022/01/28 11:10:26;;;;;;;13.23;1.35;;;7.80;99.90;;;;;;5032277;28;20057;-86
2022/01/28 11:12:52;;;;;;;13.60;2.28;;;7.20;99.90;;;;;;5014740;28;20049;-86
2022/01/28 11:15:21;;;;;;;22.48;1.80;;;8.00;99.90;;;;;;5015759;28;20500;-87
2022/01/28 11:17:57;;;;;;;15.65;1.48;;;7.50;99.90;;;;;;5018547;28;20053;-87
2022/01/28 11:20:25;;;;;;;10.52;1.10;;;8.00;99.90;;;;;;5036021;28;20390;-86
2022/01/28 11:23:09;;;;;;;6.45;0.90;;;7.60;99.90;;;;;;5018406;28;20046;-86
2022/01/28 11:25:49;;;;;;;8.18;1.48;;;7.50;99.90;;;;;;5023557;28;20052;-85
2022/01/28 11:28:15;;;;;;;13.70;1.98;;;7.50;99.90;;;;;;5055415;28;20071;-85
2022/01/28 11:30:46;;;;;;;18.50;1.40;;;8.20;99.90;;;;;;5035475;28;20486;-84
2022/01/28 11:33:12;;;;;;;12.20;1.48;;;7.90;99.90;;;;;;5017993;28;20048;-86
2022/01/28 11:35:52;;;;;;;11.23;1.58;;;7.10;99.90;;;;;;5035967;28;20038;-85
2022/01/28 11:38:28;;;;;;;11.82;2.35;;;7.30;99.90;;;;;;5035832;28;20103;-85
2022/01/28 11:41:12;;;;;;;18.35;1.35;;;7.80;99.90;;;;;;5035615;28;20042;-86
2022/01/28 11:43:51;;;;;;;12.90;1.58;;;7.20;99.90;;;;;;5035356;28;20049;-85
2022/01/28 11:46:24;;;;;;;8.38;1.00;;;7.90;99.90;;;;;;5017562;28;20041;-84
2022/01/28 11:48:54;;;;;;;8.20;1.17;;;7.40;99.90;;;;;;5035438;28;20164;-85
2022/01/28 11:51:21;;;;;;;6.70;0.95;;;7.40;99.90;;;;;;5016406;28;20485;-85
2022/01/28 11:53:55;;;;;;;9.55;1.20;;;7.50;99.90;;;;;;5017593;28;20092;-85
2022/01/28 11:56:21;;;;;;;17.02;2.03;;;8.40;99.90;;;;;;5017521;28;20060;-85
2022/01/28 11:59:04;;;;;;;12.07;2.83;;;8.30;99.90;;;;;;5034910;28;20076;-83
2022/01/28 12:01:53;;;;;;;14.27;1.73;;;7.80;99.90;;;;;;5017607;28;20046;-83
2022/01/28 12:04:25;;;;;;;8.77;1.60;;;7.80;99.90;;;;;;4977072;28;20050;-86
2022/01/28 12:06:54;;;;;;;6.50;1.30;;;8.50;99.90;;;;;;4993685;28;20474;-86
2022/01/28 12:09:20;;;;;;;4.03;0.80;;;8.30;99.90;;;;;;4993843;28;20050;-84
2022/01/28 12:11:46;;;;;;;4.70;0.68;;;8.50;99.90;;;;;;4974118;28;20061;-86
2022/01/28 12:14:13;;;;;;;9.55;1.23;;;8.40;99.90;;;;;;4992998;28;20070;-86
2022/01/28 12:16:45;;;;;;;8.40;0.90;;;7.80;99.90;;;;;;4993102;28;20058;-86
2022/01/28 12:19:22;;;;;;;5.18;1.02;;;7.90;99.90;;;;;;5007098;28;20042;-85
2022/01/28 12:22:10;;;;;;;12.70;1.83;;;8.40;99.90;;;;;;4978186;28;20065;-85
2022/01/28 12:24:39;;;;;;;7.78;1.05;;;8.50;99.90;;;;;;4977044;28;20096;-86
2022/01/28 12:27:08;;;;;;;6.13;1.30;;;7.80;99.90;;;;;;4992899;28;20045;-85
2022/01/28 12:29:46;;;;;;;16.10;1.70;;;8.00;99.90;;;;;;4977048;28;20064;-86
2022/01/28 12:32:12;;;;;;;8.23;1.17;;;8.10;99.90;;;;;;4968552;28;20100;-85
2022/01/28 12:34:46;;;;;;;8.95;1.05;;;8.40;99.90;;;;;;4993265;28;20050;-85
2022/01/28 12:37:12;;;;;;;8.18;1.63;;;8.60;99.90;;;;;;4993405;28;20443;-86
2022/01/28 12:39:56;;;;;;;8.27;1.48;;;8.20;99.90;;;;;;4976953;28;20049;-84
2022/01/28 12:42:26;;;;;;;7.95;1.02;;;7.90;99.90;;;;;;5013910;28;20058;-85
2022/01/28 12:44:52;;;;;;;2.85;0.80;;;8.20;99.90;;;;;;5016360;28;20080;-86
2022/01/28 12:47:17;;;;;;;7.22;1.25;;;8.00;99.90;;;;;;5016569;28;20465;-84
2022/01/28 12:49:44;;;;;;;12.30;1.25;;;8.10;99.90;;;;;;5017025;28;20057;-85
2022/01/28 12:52:10;;;;;;;8.63;1.10;;;8.00;99.90;;;;;;5016364;28;20564;-87
2022/01/28 12:54:43;;;;;;;6.00;0.80;;;8.50;99.90;;;;;;5018734;28;20045;-86
2022/01/28 12:57:14;;;;;;;5.43;0.73;;;7.90;99.90;;;;;;5027406;28;20440;-86
2022/01/28 12:59:42;;;;;;;1.83;0.70;;;7.90;99.90;;;;;;5045404;28;20052;-85
2022/01/28 13:02:08;;;;;;;9.80;1.02;;;7.90;99.90;;;;;;5041347;28;20045;-85
2022/01/28 13:04:55;;;;;;;8.25;1.63;;;8.50;99.90;;;;;;5036753;28;20192;-84
2022/01/28 13:09:56;;;;;;;11.20;1.17;;;9.10;99.90;;;;;;5027831;28;20049;-84
2022/01/28 13:12:27;;;;;;;9.52;1.00;;;8.30;99.90;;;;;;5006705;28;20102;-83
2022/01/28 13:14:53;;;;;;;6.38;1.13;;;8.20;99.90;;;;;;5038012;28;20065;-85
2022/01/28 13:17:21;;;;;;;8.75;1.20;;;8.20;99.90;;;;;;5019606;28;20486;-84
2022/01/28 13:19:58;;;;;;;5.53;0.80;;;8.30;99.90;;;;;;5035136;28;20049;-84
2022/01/28 13:22:33;;;;;;;8.85;0.88;;;8.60;99.90;;;;;;5033344;28;20175;-83
2022/01/28 13:24:59;;;;;;;12.00;1.55;;;8.30;99.90;;;;;;5016895;28;20041;-85
2022/01/28 13:27:49;;;;;;;11.60;1.02;;;9.10;99.90;;;;;;5023590;28;20477;-86
2022/01/28 13:30:16;;;;;;;9.57;1.35;;;8.30;99.90;;;;;;5035276;28;20041;-84
2022/01/28 13:32:45;;;;;;;4.03;0.75;;;8.50;99.90;;;;;;5042502;28;20033;-88
2022/01/28 13:35:17;;;;;;;8.40;0.88;;;8.20;99.90;;;;;;5020762;28;20135;-83
2022/01/28 13:37:51;;;;;;;8.75;0.70;;;8.20;99.90;;;;;;5020524;28;20045;-83
2022/01/28 13:40:29;;;;;;;8.73;0.70;;;8.30;99.90;;;;;;5006006;28;20045;-83
2022/01/28 13:43:16;;;;;;;5.80;0.73;;;7.90;99.90;;;;;;5035117;28;20077;-83
2022/01/28 13:45:58;;;;;;;5.68;0.70;;;7.80;99.90;;;;;;5043565;28;20127;-83
2022/01/28 13:48:33;;;;;;;7.63;0.77;;;8.10;99.90;;;;;;5027851;28;20049;-83
2022/01/28 13:51:15;;;;;;;16.35;1.35;;;8.40;99.90;;;;;;5033971;28;20405;-85
2022/01/28 13:56:26;;;;;;;4.83;1.27;;;7.70;99.90;;;;;;5043433;28;20080;-86
2022/01/28 13:58:54;;;;;;;3.45;0.60;;;8.20;99.90;;;;;;5035800;28;20331;-84
2022/01/28 14:01:22;;;;;;;5.30;0.88;;;7.80;99.90;;;;;;5030940;28;20041;-84
2022/01/28 14:03:56;;;;;;;5.82;0.75;;;7.70;99.90;;;;;;5022951;28;20159;-84
2022/01/28 14:06:28;;;;;;;9.60;1.00;;;7.80;99.90;;;;;;5015046;28;20452;-84
2022/01/28 14:09:11;;;;;;;11.98;0.82;;;7.90;99.90;;;;;;5032667;28;20490;-85
2022/01/28 14:11:44;;;;;;;4.35;0.55;;;7.80;99.90;;;;;;5015484;28;20409;-85
2022/01/28 14:14:28;;;;;;;8.25;0.90;;;7.70;99.90;;;;;;5033156;28;20042;-85
2022/01/28 14:16:56;;;;;;;4.28;0.60;;;7.70;99.90;;;;;;5032533;28;20064;-84
2022/01/28 14:19:24;;;;;;;10.95;1.38;;;7.60;99.90;;;;;;5015525;28;20049;-84
2022/01/28 14:21:50;;;;;;;4.40;0.80;;;8.40;99.90;;;;;;5015319;28;20450;-86
2022/01/28 14:24:23;;;;;;;5.35;0.73;;;8.10;99.90;;;;;;4998624;28;20081;-84
2022/01/28 14:27:11;;;;;;;5.63;0.80;;;7.70;99.90;;;;;;5033286;28;20105;-85
2022/01/28 14:32:21;;;;;;;3.45;0.60;;;7.30;99.90;;;;;;5013268;28;20073;-84